Time;durP1;ratioP1;P1;durP2;ratioP2;P2;SDS_P1;SDS_P2;PMS_P1;PMS_P2;Temp;Humidity;BMP_temperature;BMP_pressure;BME280_temperature;BME280_humidity;BME280_pressure;Samples;Min_cycle;Max_cycle;Signal;HPM_P1;HPM_P2
2022/12/20 00:01:06;;;;;;;13.10;6.03;;;;;;;;;;5079862;28;20039;-69
2022/12/20 00:03:32;;;;;;;9.02;5.60;;;;;;;;;;5099824;28;20370;-70
2022/12/20 00:05:58;;;;;;;13.00;5.90;;;;;;;;;;5077232;28;21956;-70
2022/12/20 00:08:24;;;;;;;11.43;4.97;;;;;;;;;;5098995;28;20050;-69
2022/12/20 00:10:51;;;;;;;13.50;5.50;;;;;;;;;;5096739;28;20044;-69
2022/12/20 00:13:17;;;;;;;11.88;6.03;;;;;;;;;;5083827;28;20055;-70
2022/12/20 00:15:43;;;;;;;12.13;5.55;;;;;;;;;;5080177;28;20093;-70
2022/12/20 00:18:09;;;;;;;9.13;6.03;;;;;;;;;;5100237;28;20043;-70
2022/12/20 00:20:35;;;;;;;13.93;6.10;;;;;;;;;;5077491;28;20100;-70
2022/12/20 00:23:02;;;;;;;8.73;5.65;;;;;;;;;;5093112;28;20054;-70
2022/12/20 00:25:28;;;;;;;11.20;5.03;;;;;;;;;;5096012;28;20052;-70
2022/12/20 00:27:54;;;;;;;10.50;5.82;;;;;;;;;;5102156;28;20035;-70
2022/12/20 00:30:20;;;;;;;11.90;5.60;;;;;;;;;;5102130;28;20048;-70
2022/12/20 00:32:46;;;;;;;11.20;5.45;;;;;;;;;;5103100;28;20126;-70
2022/12/20 00:35:13;;;;;;;9.32;5.38;;;;;;;;;;5084165;28;20524;-70
2022/12/20 00:37:39;;;;;;;10.48;5.93;;;;;;;;;;5062024;28;20075;-70
2022/12/20 00:40:06;;;;;;;13.52;5.60;;;;;;;;;;5106218;28;20738;-70
2022/12/20 00:42:32;;;;;;;10.38;4.85;;;;;;;;;;5080189;28;20048;-70
2022/12/20 00:44:58;;;;;;;9.68;5.15;;;;;;;;;;5083222;28;20055;-70
2022/12/20 00:47:24;;;;;;;9.50;5.70;;;;;;;;;;5082721;28;20460;-70
2022/12/20 00:49:50;;;;;;;10.40;5.03;;;;;;;;;;5081903;28;20475;-70
2022/12/20 00:52:16;;;;;;;9.50;5.13;;;;;;;;;;5081214;28;20559;-70
2022/12/20 00:54:43;;;;;;;7.50;4.30;;;;;;;;;;5082563;28;20444;-70
2022/12/20 00:57:09;;;;;;;9.25;4.53;;;;;;;;;;5081150;28;20365;-70
2022/12/20 00:59:35;;;;;;;11.85;4.95;;;;;;;;;;5081974;28;20147;-70
2022/12/20 01:02:01;;;;;;;10.00;5.07;;;;;;;;;;5082442;28;20032;-70
2022/12/20 01:04:27;;;;;;;9.48;4.57;;;;;;;;;;5082183;28;20032;-70
2022/12/20 01:06:53;;;;;;;10.93;6.00;;;;;;;;;;5080504;28;20174;-70
2022/12/20 01:09:19;;;;;;;11.57;4.55;;;;;;;;;;5082606;28;20036;-69
2022/12/20 01:11:45;;;;;;;8.27;4.68;;;;;;;;;;5085250;28;20043;-70
2022/12/20 01:14:14;;;;;;;11.57;5.70;;;;;;;;;;5081181;28;20140;-70
2022/12/20 01:16:41;;;;;;;7.55;3.90;;;;;;;;;;5087036;28;20422;-70
2022/12/20 01:19:08;;;;;;;8.00;4.45;;;;;;;;;;5080699;28;20120;-70
2022/12/20 01:21:35;;;;;;;10.43;4.38;;;;;;;;;;5079636;28;20106;-70
2022/12/20 01:24:01;;;;;;;10.15;4.53;;;;;;;;;;5071736;28;20040;-70
2022/12/20 01:26:27;;;;;;;8.38;4.15;;;;;;;;;;5067246;28;20044;-70
2022/12/20 01:28:55;;;;;;;7.85;4.75;;;;;;;;;;5065638;28;20062;-70
2022/12/20 01:31:21;;;;;;;8.50;4.50;;;;;;;;;;5075459;28;20040;-70
2022/12/20 01:33:48;;;;;;;7.93;4.57;;;;;;;;;;5076261;28;20096;-69
2022/12/20 01:36:16;;;;;;;9.27;4.15;;;;;;;;;;5080983;28;20048;-69
2022/12/20 01:38:42;;;;;;;11.15;4.05;;;;;;;;;;5080038;28;20036;-69
2022/12/20 01:41:10;;;;;;;11.95;4.60;;;;;;;;;;5081795;28;20423;-69
2022/12/20 01:43:46;;;;;;;7.88;4.72;;;;;;;;;;5103444;28;20526;-70
2022/12/20 01:46:14;;;;;;;7.78;4.35;;;;;;;;;;5105955;28;20494;-69
2022/12/20 01:48:40;;;;;;;9.32;4.22;;;;;;;;;;5083679;28;20050;-69
2022/12/20 01:51:06;;;;;;;10.40;4.50;;;;;;;;;;5085053;28;20054;-70
2022/12/20 01:53:33;;;;;;;8.10;4.97;;;;;;;;;;5083000;28;20040;-70
2022/12/20 01:56:03;;;;;;;9.95;4.25;;;;;;;;;;5082537;28;20043;-69
2022/12/20 01:58:31;;;;;;;10.38;4.88;;;;;;;;;;5099361;28;20403;-70
2022/12/20 02:00:57;;;;;;;12.15;4.50;;;;;;;;;;5083845;28;20131;-70
2022/12/20 02:03:24;;;;;;;8.32;4.35;;;;;;;;;;5099268;28;20116;-70
2022/12/20 02:05:51;;;;;;;11.02;4.47;;;;;;;;;;5083103;28;20039;-70
2022/12/20 02:08:19;;;;;;;10.70;4.05;;;;;;;;;;5084011;28;20134;-70
2022/12/20 02:10:49;;;;;;;7.47;4.05;;;;;;;;;;5103189;28;20615;-70
2022/12/20 02:13:22;;;;;;;10.07;4.35;;;;;;;;;;5100252;28;20059;-70
2022/12/20 02:15:53;;;;;;;10.57;4.75;;;;;;;;;;5092450;28;20102;-71
2022/12/20 02:18:27;;;;;;;11.98;4.18;;;;;;;;;;5098779;28;20108;-70
2022/12/20 02:21:12;;;;;;;6.88;3.85;;;;;;;;;;5082084;28;20380;-70
2022/12/20 02:23:45;;;;;;;7.82;4.15;;;;;;;;;;5082925;28;20055;-70
2022/12/20 02:26:19;;;;;;;8.77;4.25;;;;;;;;;;5082408;28;20499;-70
2022/12/20 02:28:51;;;;;;;11.48;5.03;;;;;;;;;;5097849;28;20056;-70
2022/12/20 02:31:21;;;;;;;7.88;4.70;;;;;;;;;;5082757;28;20116;-71
2022/12/20 02:33:47;;;;;;;7.40;4.78;;;;;;;;;;5100815;28;20102;-70
2022/12/20 02:36:14;;;;;;;11.63;4.30;;;;;;;;;;5085747;28;20051;-70
2022/12/20 02:38:40;;;;;;;12.68;5.30;;;;;;;;;;5081013;28;20071;-69
2022/12/20 02:41:17;;;;;;;8.05;5.40;;;;;;;;;;5087977;28;20386;-69
2022/12/20 02:46:31;;;;;;;8.43;5.68;;;;;;;;;;5104418;28;20039;-69
2022/12/20 02:49:00;;;;;;;9.45;5.07;;;;;;;;;;5080746;28;20760;-69
2022/12/20 02:51:28;;;;;;;9.93;5.32;;;;;;;;;;5099989;28;20065;-69
2022/12/20 02:53:54;;;;;;;9.80;5.28;;;;;;;;;;5101154;28;20047;-69
2022/12/20 02:56:20;;;;;;;11.02;5.22;;;;;;;;;;5100616;28;20528;-69
2022/12/20 02:58:50;;;;;;;12.65;6.63;;;;;;;;;;5080667;28;20849;-69
2022/12/20 03:01:21;;;;;;;10.55;5.55;;;;;;;;;;5099342;28;20498;-69
2022/12/20 03:03:47;;;;;;;10.55;5.72;;;;;;;;;;5100415;28;20608;-69
2022/12/20 03:06:13;;;;;;;9.63;5.70;;;;;;;;;;5099532;28;20051;-69
2022/12/20 03:08:39;;;;;;;11.73;6.05;;;;;;;;;;5099834;28;20118;-69
2022/12/20 03:11:05;;;;;;;10.77;6.25;;;;;;;;;;5100334;28;20035;-69
2022/12/20 03:13:32;;;;;;;10.02;6.00;;;;;;;;;;5082854;28;20080;-69
2022/12/20 03:15:58;;;;;;;9.73;5.28;;;;;;;;;;5097227;28;20508;-69
2022/12/20 03:18:24;;;;;;;10.18;5.75;;;;;;;;;;5102279;28;20495;-69
2022/12/20 03:20:50;;;;;;;13.02;5.65;;;;;;;;;;5100057;28;20039;-70
2022/12/20 03:23:16;;;;;;;11.05;5.60;;;;;;;;;;5081903;28;20078;-70
2022/12/20 03:25:42;;;;;;;9.13;5.45;;;;;;;;;;5098249;28;20094;-70
2022/12/20 03:28:09;;;;;;;9.07;5.63;;;;;;;;;;5099514;28;20399;-70
2022/12/20 03:30:35;;;;;;;10.95;5.95;;;;;;;;;;5098972;28;20122;-69
2022/12/20 03:33:01;;;;;;;14.13;5.90;;;;;;;;;;5100058;28;20047;-73
2022/12/20 03:35:27;;;;;;;10.43;5.75;;;;;;;;;;5098303;28;20043;-70
2022/12/20 03:37:54;;;;;;;11.57;6.40;;;;;;;;;;5099543;28;20406;-69
2022/12/20 03:40:20;;;;;;;11.40;5.80;;;;;;;;;;5081042;28;20043;-70
2022/12/20 03:42:47;;;;;;;14.60;5.65;;;;;;;;;;5100657;28;20470;-70
2022/12/20 03:45:13;;;;;;;11.13;6.88;;;;;;;;;;5098994;28;20047;-70
2022/12/20 03:47:39;;;;;;;10.68;5.72;;;;;;;;;;5099682;28;20637;-70
2022/12/20 03:50:05;;;;;;;14.30;5.80;;;;;;;;;;5081620;28;20055;-69
2022/12/20 03:52:32;;;;;;;18.88;6.05;;;;;;;;;;5100168;28;20047;-70
2022/12/20 03:54:58;;;;;;;11.60;6.25;;;;;;;;;;5098571;28;20055;-69
2022/12/20 03:57:24;;;;;;;11.10;6.35;;;;;;;;;;5100401;28;20036;-69
2022/12/20 03:59:51;;;;;;;10.70;5.63;;;;;;;;;;5098357;28;20054;-69
2022/12/20 04:02:17;;;;;;;10.45;5.97;;;;;;;;;;5070374;28;20167;-69
2022/12/20 04:04:43;;;;;;;10.48;6.10;;;;;;;;;;5098202;28;20047;-69
2022/12/20 04:07:09;;;;;;;9.40;5.78;;;;;;;;;;5098094;28;21227;-69
2022/12/20 04:09:35;;;;;;;8.95;6.15;;;;;;;;;;5095153;28;20074;-69
2022/12/20 04:12:01;;;;;;;11.85;6.03;;;;;;;;;;5082185;28;20043;-69
2022/12/20 04:14:27;;;;;;;10.82;6.25;;;;;;;;;;5079898;28;20048;-69
2022/12/20 04:16:54;;;;;;;13.25;6.35;;;;;;;;;;5100375;28;20082;-69
2022/12/20 04:19:20;;;;;;;11.07;6.40;;;;;;;;;;5100831;28;20105;-69
2022/12/20 04:21:46;;;;;;;10.30;6.25;;;;;;;;;;5096418;28;20040;-70
2022/12/20 04:24:12;;;;;;;11.00;6.78;;;;;;;;;;5096817;28;20044;-70
2022/12/20 04:26:38;;;;;;;13.57;6.75;;;;;;;;;;5097521;28;20032;-70
2022/12/20 04:29:04;;;;;;;9.68;6.07;;;;;;;;;;5078318;28;20043;-70
2022/12/20 04:31:30;;;;;;;12.27;6.80;;;;;;;;;;5081002;28;20093;-70
2022/12/20 04:33:57;;;;;;;9.98;6.10;;;;;;;;;;5099444;28;20059;-71
2022/12/20 04:36:23;;;;;;;9.70;5.93;;;;;;;;;;5098401;28;20466;-70
2022/12/20 04:38:49;;;;;;;9.45;6.22;;;;;;;;;;5080004;28;20048;-70
2022/12/20 04:41:22;;;;;;;14.93;5.80;;;;;;;;;;5098580;28;20400;-70
2022/12/20 04:43:50;;;;;;;10.38;6.55;;;;;;;;;;5079472;28;20087;-70
2022/12/20 04:46:16;;;;;;;11.07;6.95;;;;;;;;;;5098585;28;20126;-70
2022/12/20 04:48:42;;;;;;;10.45;5.88;;;;;;;;;;5103550;28;20043;-70
2022/12/20 04:51:08;;;;;;;10.55;5.95;;;;;;;;;;5096705;28;20043;-70
2022/12/20 04:53:47;;;;;;;8.98;5.70;;;;;;;;;;5098291;28;20047;-70
2022/12/20 04:56:14;;;;;;;13.45;5.80;;;;;;;;;;5097996;28;20051;-70
2022/12/20 04:58:40;;;;;;;13.15;5.95;;;;;;;;;;5098267;28;20060;-70
2022/12/20 05:01:07;;;;;;;10.95;5.47;;;;;;;;;;5080949;28;20056;-70
2022/12/20 05:03:34;;;;;;;8.68;5.20;;;;;;;;;;5098965;28;20042;-70
2022/12/20 05:06:00;;;;;;;10.88;6.18;;;;;;;;;;5098463;28;20526;-70
2022/12/20 05:08:27;;;;;;;11.15;5.75;;;;;;;;;;5099988;28;20028;-70
2022/12/20 05:10:53;;;;;;;11.10;5.57;;;;;;;;;;5098325;28;20040;-70
2022/12/20 05:13:19;;;;;;;10.20;6.15;;;;;;;;;;5102206;28;20043;-70
2022/12/20 05:15:45;;;;;;;9.65;5.40;;;;;;;;;;5084019;28;20401;-70
2022/12/20 05:18:11;;;;;;;12.57;5.57;;;;;;;;;;5090247;28;20071;-70
2022/12/20 05:20:37;;;;;;;9.82;5.38;;;;;;;;;;5081650;28;20043;-70
2022/12/20 05:28:29;;;;;;;7.63;4.43;;;;;;;;;;5088319;28;20067;-70
2022/12/20 05:30:55;;;;;;;11.23;4.82;;;;;;;;;;5105107;28;20055;-70
2022/12/20 05:33:21;;;;;;;9.07;5.20;;;;;;;;;;5104825;28;20175;-70
2022/12/20 05:35:47;;;;;;;10.07;4.95;;;;;;;;;;5105180;28;20052;-70
2022/12/20 05:38:13;;;;;;;9.15;5.22;;;;;;;;;;5104895;28;20047;-70
2022/12/20 05:40:40;;;;;;;11.27;4.80;;;;;;;;;;5104815;28;20048;-70
2022/12/20 05:43:07;;;;;;;11.02;5.13;;;;;;;;;;5105311;28;20056;-70
2022/12/20 05:45:34;;;;;;;7.00;4.22;;;;;;;;;;5088933;28;20117;-70
2022/12/20 05:48:00;;;;;;;10.45;5.13;;;;;;;;;;5103567;28;20046;-70
2022/12/20 05:50:26;;;;;;;10.05;5.32;;;;;;;;;;5088050;28;20494;-70
2022/12/20 05:52:53;;;;;;;8.35;4.68;;;;;;;;;;5082589;28;20129;-70
2022/12/20 05:55:19;;;;;;;10.40;5.20;;;;;;;;;;5082348;28;20052;-70
2022/12/20 05:57:45;;;;;;;8.35;5.15;;;;;;;;;;5103405;28;20373;-70
2022/12/20 06:00:12;;;;;;;8.40;4.85;;;;;;;;;;5085215;28;20040;-69
2022/12/20 06:02:38;;;;;;;7.20;4.50;;;;;;;;;;5103607;28;20139;-71
2022/12/20 06:05:05;;;;;;;9.38;4.88;;;;;;;;;;5107570;28;20075;-70
2022/12/20 06:07:31;;;;;;;10.77;5.35;;;;;;;;;;5105618;28;20174;-70
2022/12/20 06:09:58;;;;;;;9.85;4.50;;;;;;;;;;5087941;28;20047;-70
2022/12/20 06:12:24;;;;;;;7.00;4.38;;;;;;;;;;5106370;28;20039;-70
2022/12/20 06:14:50;;;;;;;11.20;4.80;;;;;;;;;;5102534;28;20166;-70
2022/12/20 06:17:17;;;;;;;6.90;4.03;;;;;;;;;;5106428;28;20040;-70
2022/12/20 06:19:43;;;;;;;10.00;4.68;;;;;;;;;;5107200;28;20112;-70
2022/12/20 06:22:10;;;;;;;9.68;4.45;;;;;;;;;;5087531;28;20621;-71
2022/12/20 06:24:36;;;;;;;9.77;4.70;;;;;;;;;;5102301;28;20050;-69
2022/12/20 06:27:02;;;;;;;11.38;5.32;;;;;;;;;;5087150;28;20471;-69
2022/12/20 06:29:29;;;;;;;8.70;4.68;;;;;;;;;;5100759;28;20364;-70
2022/12/20 06:31:55;;;;;;;8.57;5.13;;;;;;;;;;5093465;28;20035;-70
2022/12/20 06:34:22;;;;;;;6.47;4.22;;;;;;;;;;5081112;28;20044;-70
2022/12/20 06:36:48;;;;;;;8.60;4.90;;;;;;;;;;5100403;28;20150;-70
2022/12/20 06:39:14;;;;;;;9.73;5.03;;;;;;;;;;5103964;28;20188;-70
2022/12/20 06:41:40;;;;;;;7.38;4.75;;;;;;;;;;5110161;28;20062;-70
2022/12/20 06:44:07;;;;;;;8.07;5.32;;;;;;;;;;5112247;28;20113;-70
2022/12/20 06:46:33;;;;;;;11.15;6.15;;;;;;;;;;5108322;28;20138;-70
2022/12/20 06:48:59;;;;;;;12.88;6.68;;;;;;;;;;5095799;28;20048;-70
2022/12/20 06:51:25;;;;;;;10.70;6.78;;;;;;;;;;5107215;28;20376;-71
2022/12/20 06:53:52;;;;;;;11.40;6.15;;;;;;;;;;5088162;28;20044;-70
2022/12/20 06:56:18;;;;;;;15.15;7.22;;;;;;;;;;5089521;28;20403;-70
2022/12/20 06:58:46;;;;;;;11.43;6.72;;;;;;;;;;5090442;28;20187;-70
2022/12/20 07:01:12;;;;;;;12.68;7.07;;;;;;;;;;5096144;28;20117;-70
2022/12/20 07:03:38;;;;;;;12.68;7.28;;;;;;;;;;5100513;28;20502;-70
2022/12/20 07:06:04;;;;;;;14.13;7.60;;;;;;;;;;5078974;28;20054;-70
2022/12/20 07:08:31;;;;;;;11.10;8.00;;;;;;;;;;5078260;28;20036;-70
2022/12/20 07:11:02;;;;;;;12.73;7.72;;;;;;;;;;5078416;28;20493;-70
2022/12/20 07:13:29;;;;;;;14.52;7.38;;;;;;;;;;5097890;28;20130;-69
2022/12/20 07:16:02;;;;;;;14.02;8.18;;;;;;;;;;5098345;28;20039;-70
2022/12/20 07:18:28;;;;;;;12.40;8.45;;;;;;;;;;5098535;28;20355;-70
2022/12/20 07:20:58;;;;;;;13.38;8.27;;;;;;;;;;5097016;28;20054;-70
2022/12/20 07:23:24;;;;;;;11.13;7.65;;;;;;;;;;5098947;28;20036;-70
2022/12/20 07:25:53;;;;;;;12.52;7.88;;;;;;;;;;5099765;28;20115;-70
2022/12/20 07:28:20;;;;;;;12.57;8.20;;;;;;;;;;5100809;28;20119;-70
2022/12/20 07:30:46;;;;;;;10.48;7.38;;;;;;;;;;5094315;28;20742;-70
2022/12/20 07:33:12;;;;;;;15.05;7.75;;;;;;;;;;5097098;28;20032;-70
2022/12/20 07:35:39;;;;;;;13.93;8.00;;;;;;;;;;5079695;28;20047;-70
2022/12/20 07:38:05;;;;;;;12.55;7.65;;;;;;;;;;5094866;28;20497;-70
2022/12/20 07:40:31;;;;;;;11.55;7.53;;;;;;;;;;5083144;28;20074;-70
2022/12/20 07:42:57;;;;;;;12.95;7.82;;;;;;;;;;5101444;28;20515;-70
2022/12/20 07:45:24;;;;;;;12.10;7.65;;;;;;;;;;5081656;28;20044;-70
2022/12/20 07:47:50;;;;;;;16.00;7.78;;;;;;;;;;5081364;28;20557;-70
2022/12/20 07:50:16;;;;;;;14.15;7.10;;;;;;;;;;5105255;28;20036;-69
2022/12/20 07:52:44;;;;;;;10.68;7.32;;;;;;;;;;5084559;28;20042;-70
2022/12/20 07:55:11;;;;;;;8.77;6.40;;;;;;;;;;5095037;28;20471;-70
2022/12/20 07:57:40;;;;;;;14.07;6.68;;;;;;;;;;5097039;28;20058;-71
2022/12/20 08:00:08;;;;;;;13.40;7.22;;;;;;;;;;5082517;28;20077;-70
2022/12/20 08:02:38;;;;;;;10.73;6.78;;;;;;;;;;5097901;28;20040;-70
2022/12/20 08:05:06;;;;;;;10.95;6.68;;;;;;;;;;5075275;28;20471;-70
2022/12/20 08:07:32;;;;;;;10.57;6.28;;;;;;;;;;5099889;28;20036;-71
2022/12/20 08:09:58;;;;;;;10.00;6.03;;;;;;;;;;5100157;28;20040;-70
2022/12/20 08:12:25;;;;;;;12.20;6.90;;;;;;;;;;5075783;28;20040;-70
2022/12/20 08:14:54;;;;;;;10.68;6.45;;;;;;;;;;5102104;28;20690;-71
2022/12/20 08:17:21;;;;;;;10.00;6.43;;;;;;;;;;5102244;28;20036;-70
2022/12/20 08:19:50;;;;;;;10.65;6.18;;;;;;;;;;5098590;28;20394;-70
2022/12/20 08:22:18;;;;;;;11.43;6.15;;;;;;;;;;5100737;28;20044;-78
2022/12/20 08:24:44;;;;;;;9.27;5.57;;;;;;;;;;5080125;28;20044;-71
2022/12/20 08:27:10;;;;;;;10.40;5.68;;;;;;;;;;5101148;28;20109;-70
2022/12/20 08:29:36;;;;;;;9.07;5.18;;;;;;;;;;5081652;28;20040;-70
2022/12/20 08:32:02;;;;;;;12.25;6.35;;;;;;;;;;5098166;28;20082;-71
2022/12/20 08:34:29;;;;;;;10.23;5.65;;;;;;;;;;5098997;28;20368;-71
2022/12/20 08:36:55;;;;;;;15.05;5.75;;;;;;;;;;5097121;28;20528;-71
2022/12/20 08:39:21;;;;;;;10.68;5.65;;;;;;;;;;5100003;28;20032;-70
2022/12/20 08:41:47;;;;;;;11.70;5.18;;;;;;;;;;5099963;28;20044;-69
2022/12/20 08:44:14;;;;;;;11.07;4.90;;;;;;;;;;5101874;28;20051;-71
2022/12/20 08:46:40;;;;;;;8.30;5.00;;;;;;;;;;5082751;28;20483;-71
2022/12/20 08:49:06;;;;;;;11.25;5.22;;;;;;;;;;5103026;28;20043;-71
2022/12/20 08:51:32;;;;;;;7.85;4.60;;;;;;;;;;5103546;28;20051;-72
2022/12/20 08:53:58;;;;;;;9.30;5.28;;;;;;;;;;5099712;28;20044;-71
2022/12/20 08:56:25;;;;;;;7.25;4.28;;;;;;;;;;5087824;28;20082;-71
2022/12/20 08:58:51;;;;;;;12.02;5.03;;;;;;;;;;5070685;28;20048;-71
2022/12/20 09:01:19;;;;;;;7.82;4.30;;;;;;;;;;5088102;28;20125;-71
2022/12/20 09:03:45;;;;;;;10.30;4.55;;;;;;;;;;5084616;28;20044;-71
2022/12/20 09:06:14;;;;;;;7.18;4.70;;;;;;;;;;5104145;28;20383;-71
2022/12/20 09:08:40;;;;;;;12.18;4.32;;;;;;;;;;5103666;28;20032;-71
2022/12/20 09:11:08;;;;;;;7.00;4.15;;;;;;;;;;5084085;28;20387;-71
2022/12/20 09:13:35;;;;;;;9.75;4.45;;;;;;;;;;5105148;28;20044;-71
2022/12/20 09:16:03;;;;;;;6.95;3.80;;;;;;;;;;5103821;28;20046;-71
2022/12/20 09:18:30;;;;;;;6.80;3.58;;;;;;;;;;5100882;28;20214;-71
2022/12/20 09:20:59;;;;;;;11.32;4.45;;;;;;;;;;5100142;28;20117;-71
2022/12/20 09:23:25;;;;;;;6.57;4.20;;;;;;;;;;5105930;28;20050;-71
2022/12/20 09:25:51;;;;;;;7.57;3.80;;;;;;;;;;5104847;28;20047;-69
2022/12/20 09:28:18;;;;;;;11.88;4.63;;;;;;;;;;5090355;28;20048;-71
2022/12/20 09:30:45;;;;;;;6.75;3.72;;;;;;;;;;5101554;28;20054;-71
2022/12/20 09:33:11;;;;;;;5.65;3.47;;;;;;;;;;5102247;28;20167;-71
2022/12/20 09:35:43;;;;;;;7.15;3.67;;;;;;;;;;5083020;28;20506;-71
2022/12/20 09:38:09;;;;;;;8.57;3.80;;;;;;;;;;5080547;28;20036;-71
2022/12/20 09:40:37;;;;;;;9.95;3.70;;;;;;;;;;5069551;28;20387;-71
2022/12/20 09:43:04;;;;;;;8.88;4.00;;;;;;;;;;5102274;28;20139;-71
2022/12/20 09:45:33;;;;;;;6.18;3.90;;;;;;;;;;5086545;28;20039;-71
2022/12/20 09:48:00;;;;;;;7.32;3.60;;;;;;;;;;5082684;28;20047;-71
2022/12/20 09:50:36;;;;;;;9.75;3.40;;;;;;;;;;5101366;28;20123;-71
2022/12/20 09:53:14;;;;;;;14.00;3.95;;;;;;;;;;5100704;28;20386;-71
2022/12/20 09:55:43;;;;;;;8.18;3.67;;;;;;;;;;5099242;28;20113;-71
2022/12/20 09:58:29;;;;;;;8.10;3.53;;;;;;;;;;5104412;28;20123;-71
2022/12/20 10:00:56;;;;;;;8.10;3.63;;;;;;;;;;5101867;28;20047;-71
2022/12/20 10:03:25;;;;;;;9.55;3.58;;;;;;;;;;5102263;28;20107;-71
2022/12/20 10:05:53;;;;;;;6.45;3.83;;;;;;;;;;5082119;28;20052;-71
2022/12/20 10:08:44;;;;;;;8.82;4.78;;;;;;;;;;5104663;28;20127;-71
2022/12/20 10:11:26;;;;;;;9.18;3.67;;;;;;;;;;5085396;28;20181;-71
2022/12/20 10:14:01;;;;;;;6.60;3.45;;;;;;;;;;5101967;28;20036;-71
2022/12/20 10:16:41;;;;;;;9.48;3.38;;;;;;;;;;5100157;28;20047;-71
2022/12/20 10:19:13;;;;;;;10.60;3.72;;;;;;;;;;5102078;28;20043;-71
2022/12/20 10:21:58;;;;;;;7.07;3.53;;;;;;;;;;5101907;28;20093;-71
2022/12/20 10:24:30;;;;;;;7.28;3.08;;;;;;;;;;5105591;28;20049;-71
2022/12/20 10:26:58;;;;;;;10.15;3.53;;;;;;;;;;5102631;28;20402;-71
2022/12/20 10:29:24;;;;;;;7.50;3.20;;;;;;;;;;5091568;28;20035;-71
2022/12/20 10:31:54;;;;;;;9.20;4.03;;;;;;;;;;5111653;28;20043;-71
2022/12/20 10:34:20;;;;;;;6.55;3.60;;;;;;;;;;5108681;28;20551;-70
2022/12/20 10:36:49;;;;;;;7.78;3.40;;;;;;;;;;5109429;28;20074;-70
2022/12/20 10:39:15;;;;;;;10.25;4.35;;;;;;;;;;5089485;28;20035;-75
2022/12/20 10:41:42;;;;;;;7.78;3.38;;;;;;;;;;5108206;28;20793;-72
2022/12/20 10:44:14;;;;;;;12.27;3.10;;;;;;;;;;5111033;28;20448;-75
2022/12/20 10:46:42;;;;;;;8.52;3.45;;;;;;;;;;5088079;28;20055;-71
2022/12/20 10:49:22;;;;;;;8.63;3.38;;;;;;;;;;5090663;28;20056;-71
2022/12/20 10:51:55;;;;;;;6.55;3.78;;;;;;;;;;5111327;28;20050;-71
2022/12/20 10:54:23;;;;;;;12.65;3.67;;;;;;;;;;5110772;28;20054;-71
2022/12/20 10:56:57;;;;;;;7.47;2.90;;;;;;;;;;5108167;28;20078;-72
2022/12/20 10:59:23;;;;;;;;;;;;;;;;;;5096206;28;20043;-71
2022/12/20 11:01:49;;;;;;;9.80;3.25;;;;;;;;;;5094412;28;19920;-71
2022/12/20 11:04:33;;;;;;;7.35;3.70;;;;;;;;;;5109012;28;20047;-72
2022/12/20 11:07:00;;;;;;;8.10;3.80;;;;;;;;;;5092370;28;20050;-71
2022/12/20 11:09:27;;;;;;;6.60;3.10;;;;;;;;;;5106741;28;20398;-72
2022/12/20 11:12:04;;;;;;;14.25;3.83;;;;;;;;;;5109284;28;20032;-71
2022/12/20 11:14:31;;;;;;;6.80;3.38;;;;;;;;;;5106006;28;20039;-72
2022/12/20 11:16:59;;;;;;;6.82;3.25;;;;;;;;;;5108975;28;20080;-71
2022/12/20 11:19:46;;;;;;;8.55;3.85;;;;;;;;;;5110688;28;20055;-71
2022/12/20 11:22:29;;;;;;;10.40;4.00;;;;;;;;;;5106524;28;20467;-71
2022/12/20 11:25:07;;;;;;;10.93;4.15;;;;;;;;;;5108559;28;20462;-71
2022/12/20 11:27:40;;;;;;;8.32;4.38;;;;;;;;;;5109114;28;20052;-71
2022/12/20 11:30:15;;;;;;;8.65;3.95;;;;;;;;;;5108191;28;20043;-71
2022/12/20 11:32:51;;;;;;;9.68;4.22;;;;;;;;;;5105963;28;20040;-72
2022/12/20 11:35:22;;;;;;;8.30;4.05;;;;;;;;;;5090219;28;20056;-71
2022/12/20 11:37:51;;;;;;;8.13;4.00;;;;;;;;;;5089171;28;20155;-72
2022/12/20 11:40:32;;;;;;;9.63;4.55;;;;;;;;;;5105600;28;20392;-72
2022/12/20 11:43:02;;;;;;;10.90;5.28;;;;;;;;;;5090273;28;20253;-72
2022/12/20 11:45:38;;;;;;;9.30;4.22;;;;;;;;;;5101259;28;20059;-72
2022/12/20 11:48:25;;;;;;;8.90;4.95;;;;;;;;;;5108291;28;20036;-71
2022/12/20 11:51:02;;;;;;;9.32;5.40;;;;;;;;;;5103297;28;20403;-72
2022/12/20 11:53:38;;;;;;;10.45;5.47;;;;;;;;;;5091366;28;20044;-72
2022/12/20 11:56:08;;;;;;;13.10;5.82;;;;;;;;;;5107591;28;20547;-72
2022/12/20 11:58:47;;;;;;;10.57;5.53;;;;;;;;;;5108524;28;20032;-72
2022/12/20 12:01:17;;;;;;;10.93;5.75;;;;;;;;;;5108358;28;20099;-71
2022/12/20 12:03:49;;;;;;;10.65;5.15;;;;;;;;;;5107434;28;20100;-72
2022/12/20 12:06:19;;;;;;;14.98;6.05;;;;;;;;;;5107766;28;20054;-72
2022/12/20 12:08:50;;;;;;;13.18;6.40;;;;;;;;;;5107210;28;20404;-71
2022/12/20 12:11:18;;;;;;;11.48;6.22;;;;;;;;;;5106844;28;20039;-72
2022/12/20 12:13:45;;;;;;;12.82;6.32;;;;;;;;;;5108207;28;20082;-71
2022/12/20 12:16:16;;;;;;;9.55;6.55;;;;;;;;;;5106948;28;20048;-72
2022/12/20 12:18:42;;;;;;;12.45;6.95;;;;;;;;;;5106674;28;20043;-71
2022/12/20 12:21:21;;;;;;;13.70;7.32;;;;;;;;;;5107543;28;20039;-71
2022/12/20 12:23:53;;;;;;;14.70;7.60;;;;;;;;;;5088735;28;20051;-71
2022/12/20 12:26:26;;;;;;;13.23;6.90;;;;;;;;;;5105797;28;20130;-70
2022/12/20 12:28:54;;;;;;;14.05;7.32;;;;;;;;;;5104919;28;20144;-71
2022/12/20 12:31:26;;;;;;;11.30;7.55;;;;;;;;;;5096835;28;20091;-69
2022/12/20 12:34:01;;;;;;;12.80;8.07;;;;;;;;;;5106957;28;20479;-70
2022/12/20 12:36:42;;;;;;;14.50;7.93;;;;;;;;;;5106225;28;20044;-70
2022/12/20 12:39:17;;;;;;;13.65;8.13;;;;;;;;;;5094585;28;20058;-70
2022/12/20 12:41:47;;;;;;;16.17;8.32;;;;;;;;;;5093385;28;20121;-70
2022/12/20 12:44:18;;;;;;;12.65;7.95;;;;;;;;;;5094047;28;20055;-70
2022/12/20 12:46:45;;;;;;;13.15;8.55;;;;;;;;;;5112532;28;20094;-70
2022/12/20 12:49:16;;;;;;;15.82;8.82;;;;;;;;;;5093462;28;20511;-70
2022/12/20 12:51:44;;;;;;;13.25;7.90;;;;;;;;;;5111081;28;20036;-70
2022/12/20 12:54:19;;;;;;;9.52;7.25;;;;;;;;;;5107490;28;20082;-71
2022/12/20 12:56:46;;;;;;;11.18;7.57;;;;;;;;;;5093216;28;20055;-70
2022/12/20 12:59:12;;;;;;;14.57;7.93;;;;;;;;;;5094058;28;20090;-70
2022/12/20 13:01:43;;;;;;;12.32;8.02;;;;;;;;;;5112537;28;20046;-70
2022/12/20 13:04:22;;;;;;;12.27;7.53;;;;;;;;;;5093123;28;20510;-70
2022/12/20 13:06:48;;;;;;;16.40;8.00;;;;;;;;;;5112272;28;20040;-70
2022/12/20 13:09:35;;;;;;;12.75;7.45;;;;;;;;;;5112120;28;20039;-70
2022/12/20 13:12:21;;;;;;;16.33;8.23;;;;;;;;;;5112652;28;20502;-70
2022/12/20 13:14:48;;;;;;;11.45;7.35;;;;;;;;;;5110731;28;20076;-70
2022/12/20 13:17:17;;;;;;;10.68;7.97;;;;;;;;;;5103636;28;20048;-69
2022/12/20 13:19:50;;;;;;;13.57;8.98;;;;;;;;;;5112022;28;20040;-69
2022/12/20 13:22:16;;;;;;;10.43;8.27;;;;;;;;;;5093653;28;20055;-69
2022/12/20 13:24:49;;;;;;;11.90;8.93;;;;;;;;;;5111218;28;20491;-69
2022/12/20 13:27:21;;;;;;;16.55;8.98;;;;;;;;;;5112153;28;20444;-69
2022/12/20 13:29:52;;;;;;;13.13;8.90;;;;;;;;;;5112110;28;20064;-69
2022/12/20 13:32:37;;;;;;;12.25;9.98;;;;;;;;;;5111786;28;20044;-69
2022/12/20 13:35:23;;;;;;;13.68;10.32;;;;;;;;;;5097124;28;20052;-69
2022/12/20 13:38:02;;;;;;;20.40;10.45;;;;;;;;;;5114607;28;20080;-69
2022/12/20 13:40:30;;;;;;;15.68;11.23;;;;;;;;;;5114280;28;20055;-69
2022/12/20 13:42:56;;;;;;;18.67;11.13;;;;;;;;;;5112170;28;20087;-69
2022/12/20 13:45:23;;;;;;;14.25;11.23;;;;;;;;;;5114709;28;20505;-69
2022/12/20 13:47:52;;;;;;;15.13;12.25;;;;;;;;;;5115448;28;20122;-69
2022/12/20 13:50:22;;;;;;;15.30;11.82;;;;;;;;;;5113027;28;20051;-69
2022/12/20 13:52:48;;;;;;;16.80;11.68;;;;;;;;;;5106768;28;20051;-69
2022/12/20 13:55:17;;;;;;;15.75;12.02;;;;;;;;;;5110684;28;20667;-69
2022/12/20 13:57:45;;;;;;;18.58;12.32;;;;;;;;;;5110247;28;20051;-69
2022/12/20 14:00:16;;;;;;;14.43;11.60;;;;;;;;;;5089527;28;20499;-69
2022/12/20 14:02:43;;;;;;;19.80;12.80;;;;;;;;;;5096306;28;20123;-69
2022/12/20 14:05:15;;;;;;;21.67;12.25;;;;;;;;;;5091856;28;20402;-69
2022/12/20 14:07:42;;;;;;;17.75;12.32;;;;;;;;;;5107288;28;20056;-69
2022/12/20 14:10:17;;;;;;;21.50;13.35;;;;;;;;;;5092977;28;20066;-69
2022/12/20 14:12:44;;;;;;;23.30;12.60;;;;;;;;;;5107980;28;20392;-69
2022/12/20 14:15:23;;;;;;;21.83;14.15;;;;;;;;;;5110028;28;20082;-72
2022/12/20 14:17:50;;;;;;;21.50;14.73;;;;;;;;;;5108100;28;20044;-70
2022/12/20 14:20:17;;;;;;;20.15;15.20;;;;;;;;;;5082042;28;20052;-70
2022/12/20 14:23:03;;;;;;;20.88;15.77;;;;;;;;;;5085044;28;20036;-69
2022/12/20 14:25:32;;;;;;;19.58;16.50;;;;;;;;;;5103261;28;20051;-69
2022/12/20 14:27:59;;;;;;;24.35;15.52;;;;;;;;;;5080830;28;20035;-70
2022/12/20 14:30:26;;;;;;;23.10;15.95;;;;;;;;;;5081211;28;20130;-69
2022/12/20 14:32:54;;;;;;;22.67;16.90;;;;;;;;;;5100226;28;20061;-69
2022/12/20 14:35:21;;;;;;;22.50;16.95;;;;;;;;;;5101872;28;20059;-69
2022/12/20 14:37:55;;;;;;;25.35;17.02;;;;;;;;;;5103501;28;20562;-69
2022/12/20 14:40:23;;;;;;;19.15;16.30;;;;;;;;;;5083330;28;20046;-69
2022/12/20 14:42:49;;;;;;;25.33;16.73;;;;;;;;;;5100080;28;20055;-69
2022/12/20 14:45:21;;;;;;;25.15;18.77;;;;;;;;;;5083141;28;20038;-69
2022/12/20 14:47:59;;;;;;;21.75;18.17;;;;;;;;;;5085741;28;20043;-69
2022/12/20 14:50:28;;;;;;;24.83;18.65;;;;;;;;;;5101510;28;20050;-69